Salvamar Mimosa — EC2473 — position and weather

sailwx.info

Track history (hours):
 
Tides and Currents Weather Stations Pressure Air Temp Water Temp Dewpoint Dewpoint Depression Visibility Wind Speed Wind Dir Waves Ship Positions

Salvamar Mimosa

Last reported at 2016-Jul-28 15:16 UTC. Time now 2016-Jul-30 22:42 UTC.
Position N 37°32' W 000°51'.

Length 21 m; draft 1.2 m.

Type: SAR. MMSI: 224363280.

Date/timePositionNaut miles runAvg speedWind from/ knotsBaromVisibWave heightAir tempDewpointWater temp
2016-Jul-28 15:16N 37°32' W 000°51'2 3.3
2016-Jul-28 14:32N 37°32' W 000°48'3 2.9
2016-Jul-28 13:33N 37°33' W 000°44'1 1.0
2016-Jul-28 12:33N 37°33' W 000°43'5 4.5
2016-Jul-28 11:27N 37°38' W 000°42'5 5.7
2016-Jul-28 10:33N 37°33' W 000°42'4 1.4
2016-Jul-28 07:33N 37°33' W 000°48'7 0.4
2016-Jul-27 14:33N 37°38' W 000°41'1211.7
2016-Jul-27 13:33N 37°49' W 000°45'0 0.0
2016-Jul-27 10:10N 37°49' W 000°45'0 0.0
2016-Jul-27 09:33N 37°49' W 000°45'1010.2
2016-Jul-27 08:33N 37°40' W 000°40'14 0.4
2016-Jul-25 21:25N 37°33' W 000°55'6 7.1
2016-Jul-25 20:33N 37°35' W 000°47'7 7.5
2016-Jul-25 19:34N 37°38' W 000°39'  
2016-Jul-22 16:33N 37°36' W 000°45'1413.6
2016-Jul-22 15:33N 37°49' W 000°45'1 0.6
2016-Jul-22 14:33N 37°49' W 000°45'19 3.7
2016-Jul-22 09:21N 37°34' W 000°59'  
Track history (hours):
 
Tides and Currents Weather Stations Pressure Air Temp Water Temp Dewpoint Dewpoint Depression Visibility Wind Speed Wind Dir Waves Ship Positions

Salvamar Mimosa

Last reported at 2016-Jul-28 15:16 UTC. Time now 2016-Jul-30 22:42 UTC.
Position N 37°32' W 000°51'.

Length 21 m; draft 1.2 m.

Type: SAR. MMSI: 224363280.

Date/timePositionNaut miles runAvg speedWind from/ knotsBaromVisibWave heightAir tempDewpointWater temp
2016-Jul-28 15:16N 37°32' W 000°51'2 3.3
2016-Jul-28 14:32N 37°32' W 000°48'3 2.9
2016-Jul-28 13:33N 37°33' W 000°44'1 1.0
2016-Jul-28 12:33N 37°33' W 000°43'5 4.5
2016-Jul-28 11:27N 37°38' W 000°42'5 5.7
2016-Jul-28 10:33N 37°33' W 000°42'4 1.4
2016-Jul-28 07:33N 37°33' W 000°48'7 0.4
2016-Jul-27 14:33N 37°38' W 000°41'1211.7
2016-Jul-27 13:33N 37°49' W 000°45'0 0.0
2016-Jul-27 10:10N 37°49' W 000°45'0 0.0
2016-Jul-27 09:33N 37°49' W 000°45'1010.2
2016-Jul-27 08:33N 37°40' W 000°40'14 0.4
2016-Jul-25 21:25N 37°33' W 000°55'6 7.1
2016-Jul-25 20:33N 37°35' W 000°47'7 7.5
2016-Jul-25 19:34N 37°38' W 000°39'  
2016-Jul-22 16:33N 37°36' W 000°45'1413.6
2016-Jul-22 15:33N 37°49' W 000°45'1 0.6
2016-Jul-22 14:33N 37°49' W 000°45'19 3.7
2016-Jul-22 09:21N 37°34' W 000°59'  

Dump ship's entire track history